Asian Vision — D8CU — position and weather

sailwx.info

Track history (hours):
 
Tides and Currents Weather Stations Pressure Air Temp Water Temp Dewpoint Dewpoint Depression Visibility Wind Speed Wind Dir Waves Ship Positions

Asian Vision

Last reported at 2018-May-23 04:45 UTC. Time now 2018-May-26 03:56 UTC.
Position S 24°40' W 046°44'.

Length 200 m; draft 8.6 m.

Type: Cargo ship. MMSI: 441992000.

Date/timePositionNaut miles runAvg speedWind from/ knotsBaromVisibWave heightAir tempDewpointWater temp
2018-May-23 04:45S 24°40' W 046°44'418.3
2018-May-23 04:31S 24°38' W 046°40'917.5
2018-May-23 04:01S 24°31' W 046°34'917.5
2018-May-23 03:28S 24°22' W 046°30'817.7
2018-May-23 03:01S 24°14' W 046°27'917.1
2018-May-23 02:30S 24°06' W 046°24'713.5
2018-May-23 01:58S 23°60' W 046°20'3 5.9
2018-May-23 01:30S 23°58' W 046°18'0 0.0
2018-May-22 12:27S 23°58' W 046°18'1 1.3
2018-May-22 11:56S 23°58' W 046°18'3 7.0
2018-May-22 11:30S 24°00' W 046°20'4 8.7
2018-May-22 11:00S 24°04' W 046°23'2 3.3
2018-May-22 10:30S 24°05' W 046°24'2 4.2
2018-May-22 10:00S 24°07' W 046°22'4 7.7
2018-May-22 09:30S 24°10' W 046°22'611.6
2018-May-22 09:00S 24°15' W 046°18'816.0
2018-May-22 08:30S 24°15' W 046°09'916.5
2018-May-22 07:59S 24°14' W 045°59'  
Track history (hours):
 
Tides and Currents Weather Stations Pressure Air Temp Water Temp Dewpoint Dewpoint Depression Visibility Wind Speed Wind Dir Waves Ship Positions

Asian Vision

Last reported at 2018-May-23 04:45 UTC. Time now 2018-May-26 03:56 UTC.
Position S 24°40' W 046°44'.

Length 200 m; draft 8.6 m.

Type: Cargo ship. MMSI: 441992000.

Date/timePositionNaut miles runAvg speedWind from/ knotsBaromVisibWave heightAir tempDewpointWater temp
2018-May-23 04:45S 24°40' W 046°44'418.3
2018-May-23 04:31S 24°38' W 046°40'917.5
2018-May-23 04:01S 24°31' W 046°34'917.5
2018-May-23 03:28S 24°22' W 046°30'817.7
2018-May-23 03:01S 24°14' W 046°27'917.1
2018-May-23 02:30S 24°06' W 046°24'713.5
2018-May-23 01:58S 23°60' W 046°20'3 5.9
2018-May-23 01:30S 23°58' W 046°18'0 0.0
2018-May-22 12:27S 23°58' W 046°18'1 1.3
2018-May-22 11:56S 23°58' W 046°18'3 7.0
2018-May-22 11:30S 24°00' W 046°20'4 8.7
2018-May-22 11:00S 24°04' W 046°23'2 3.3
2018-May-22 10:30S 24°05' W 046°24'2 4.2
2018-May-22 10:00S 24°07' W 046°22'4 7.7
2018-May-22 09:30S 24°10' W 046°22'611.6
2018-May-22 09:00S 24°15' W 046°18'816.0
2018-May-22 08:30S 24°15' W 046°09'916.5
2018-May-22 07:59S 24°14' W 045°59'  

Dump ship's entire track history